AZV554 UUDD-URSS
Flight info
| Callsign | AZV554 |
|---|---|
| Flight time | 1h 56m |
| Altitude | 37000 |
| Route | LINRU4Q LINRU L4 EKTUT N72 UMSIS N166 ADNET W79 BINOL BINOL1K |
| Aircraft | B752/M-SDE2E3FGHIJ3J4J7RWXY/LB1 |
Departure
| Time | 2026-05-05 13:14 |
|---|---|
| Airport | Domodedovo International Airport (UUDD) |
Arrival
| Time | 2026-05-05 15:10 |
|---|---|
| Airport | Sochi International Airport (URSS) |
| Time | Latitude | Longitude | Altitude | Speed | Heading |
|---|---|---|---|---|---|
| 2026-05-05 12:41 | 55.41230 | 37.90129 | 605 ft | 0 kts | 233° |
| 2026-05-05 13:03 | 55.41239 | 37.90149 | 604 ft | 2 kts | 232° |
| 2026-05-05 13:03 | 55.41248 | 37.90169 | 604 ft | 1 kts | 233° |
| 2026-05-05 13:04 | 55.41254 | 37.90184 | 604 ft | 2 kts | 219° |
| 2026-05-05 13:04 | 55.41268 | 37.90194 | 604 ft | 2 kts | 186° |
| 2026-05-05 13:04 | 55.41283 | 37.90192 | 604 ft | 2 kts | 156° |
| 2026-05-05 13:04 | 55.41289 | 37.90186 | 604 ft | 1 kts | 142° |
| 2026-05-05 13:05 | 55.41293 | 37.90181 | 604 ft | 0 kts | 145° |
| 2026-05-05 13:07 | 55.41289 | 37.90185 | 604 ft | 3 kts | 145° |
| 2026-05-05 13:07 | 55.41256 | 37.90222 | 604 ft | 8 kts | 146° |
| 2026-05-05 13:07 | 55.41197 | 37.90292 | 604 ft | 12 kts | 155° |
| 2026-05-05 13:07 | 55.41122 | 37.90205 | 604 ft | 17 kts | 235° |
| 2026-05-05 13:08 | 55.41034 | 37.89981 | 604 ft | 27 kts | 236° |
| 2026-05-05 13:08 | 55.40929 | 37.89713 | 604 ft | 25 kts | 236° |
| 2026-05-05 13:08 | 55.40847 | 37.89530 | 604 ft | 17 kts | 228° |
| 2026-05-05 13:08 | 55.40783 | 37.89370 | 604 ft | 14 kts | 236° |
| 2026-05-05 13:09 | 55.40720 | 37.89265 | 604 ft | 11 kts | 182° |
| 2026-05-05 13:09 | 55.40649 | 37.89328 | 604 ft | 12 kts | 147° |
| 2026-05-05 13:09 | 55.40570 | 37.89421 | 604 ft | 14 kts | 146° |
| 2026-05-05 13:09 | 55.40472 | 37.89539 | 604 ft | 19 kts | 145° |
| 2026-05-05 13:10 | 55.40350 | 37.89687 | 604 ft | 23 kts | 146° |
| 2026-05-05 13:10 | 55.40199 | 37.89868 | 604 ft | 28 kts | 146° |
| 2026-05-05 13:10 | 55.40041 | 37.90057 | 604 ft | 26 kts | 145° |
| 2026-05-05 13:10 | 55.39895 | 37.90234 | 604 ft | 24 kts | 146° |
| 2026-05-05 13:11 | 55.39764 | 37.90391 | 604 ft | 21 kts | 148° |
| 2026-05-05 13:11 | 55.39652 | 37.90527 | 604 ft | 15 kts | 148° |
| 2026-05-05 13:11 | 55.39581 | 37.90483 | 604 ft | 9 kts | 234° |
| 2026-05-05 13:11 | 55.39546 | 37.90374 | 604 ft | 10 kts | 267° |
| 2026-05-05 13:12 | 55.39580 | 37.90258 | 604 ft | 11 kts | 320° |
| 2026-05-05 13:12 | 55.39604 | 37.90224 | 604 ft | 0 kts | 324° |
| 2026-05-05 13:13 | 55.39643 | 37.90174 | 604 ft | 25 kts | 324° |
| 2026-05-05 13:13 | 55.39956 | 37.89798 | 604 ft | 84 kts | 327° |
| 2026-05-05 13:13 | 55.40609 | 37.89016 | 605 ft | 140 kts | 326° |
| 2026-05-05 13:13 | 55.41536 | 37.87908 | 826 ft | 172 kts | 324° |
| 2026-05-05 13:14 | 55.42523 | 37.86753 | 1524 ft | 174 kts | 319° |
| 2026-05-05 13:14 | 55.43346 | 37.85221 | 1971 ft | 181 kts | 307° |
| 2026-05-05 13:14 | 55.44186 | 37.83324 | 1999 ft | 212 kts | 307° |
| 2026-05-05 13:14 | 55.45095 | 37.81401 | 2754 ft | 206 kts | 308° |
| 2026-05-05 13:15 | 55.45947 | 37.79198 | 2952 ft | 228 kts | 289° |
| 2026-05-05 13:15 | 55.46042 | 37.76391 | 3463 ft | 237 kts | 255° |
| 2026-05-05 13:15 | 55.45269 | 37.73801 | 4111 ft | 244 kts | 234° |
| 2026-05-05 13:15 | 55.44257 | 37.71439 | 4836 ft | 244 kts | 236° |
| 2026-05-05 13:16 | 55.43089 | 37.69152 | 5212 ft | 264 kts | 216° |
| 2026-05-05 13:16 | 55.41387 | 37.68096 | 5995 ft | 267 kts | 187° |
| 2026-05-05 13:16 | 55.39510 | 37.68562 | 6525 ft | 278 kts | 156° |
| 2026-05-05 13:16 | 55.37903 | 37.70425 | 7234 ft | 283 kts | 143° |
| 2026-05-05 13:17 | 55.36344 | 37.72518 | 7936 ft | 284 kts | 145° |
| 2026-05-05 13:17 | 55.34710 | 37.74571 | 8572 ft | 289 kts | 146° |
| 2026-05-05 13:17 | 55.33067 | 37.76599 | 9242 ft | 291 kts | 146° |
| 2026-05-05 13:17 | 55.31387 | 37.78666 | 9904 ft | 294 kts | 146° |
| 2026-05-05 13:18 | 55.29669 | 37.80761 | 10202 ft | 311 kts | 146° |
| 2026-05-05 13:18 | 55.27874 | 37.82880 | 10962 ft | 309 kts | 152° |
| 2026-05-05 13:18 | 55.25859 | 37.84193 | 11544 ft | 312 kts | 167° |
| 2026-05-05 13:18 | 55.23748 | 37.85148 | 12180 ft | 315 kts | 167° |
| 2026-05-05 13:19 | 55.21631 | 37.86119 | 12807 ft | 318 kts | 167° |
| 2026-05-05 13:19 | 55.19508 | 37.87076 | 13403 ft | 321 kts | 167° |
| 2026-05-05 13:19 | 55.17328 | 37.88051 | 14012 ft | 325 kts | 167° |
| 2026-05-05 13:19 | 55.15112 | 37.89038 | 14613 ft | 328 kts | 167° |
| 2026-05-05 13:20 | 55.12908 | 37.90016 | 15194 ft | 331 kts | 167° |
| 2026-05-05 13:20 | 55.10662 | 37.90789 | 15758 ft | 333 kts | 179° |
| 2026-05-05 13:20 | 55.08353 | 37.90596 | 16303 ft | 334 kts | 189° |
| 2026-05-05 13:20 | 55.06060 | 37.90109 | 16857 ft | 336 kts | 189° |
| 2026-05-05 13:21 | 55.03707 | 37.89617 | 17398 ft | 340 kts | 189° |
| 2026-05-05 13:21 | 55.01345 | 37.89162 | 17759 ft | 350 kts | 184° |
| 2026-05-05 13:21 | 54.98851 | 37.89551 | 17806 ft | 371 kts | 167° |
| 2026-05-05 13:21 | 54.96380 | 37.90880 | 18347 ft | 375 kts | 163° |
| 2026-05-05 13:22 | 54.93871 | 37.92270 | 18828 ft | 380 kts | 164° |
| 2026-05-05 13:22 | 54.91369 | 37.93636 | 19376 ft | 382 kts | 163° |
| 2026-05-05 13:22 | 54.88817 | 37.95027 | 19890 ft | 385 kts | 163° |
| 2026-05-05 13:22 | 54.86241 | 37.96431 | 20385 ft | 389 kts | 163° |
| 2026-05-05 13:23 | 54.83653 | 37.97831 | 20712 ft | 397 kts | 164° |
| 2026-05-05 13:23 | 54.80971 | 37.99245 | 20719 ft | 414 kts | 164° |
| 2026-05-05 13:23 | 54.78154 | 38.00728 | 20733 ft | 431 kts | 164° |
| 2026-05-05 13:23 | 54.75272 | 38.02245 | 20745 ft | 447 kts | 164° |
| 2026-05-05 13:24 | 54.72242 | 38.03839 | 21166 ft | 452 kts | 164° |
| 2026-05-05 13:24 | 54.69250 | 38.05410 | 21593 ft | 457 kts | 164° |
| 2026-05-05 13:24 | 54.66201 | 38.07025 | 22096 ft | 459 kts | 163° |
| 2026-05-05 13:24 | 54.63161 | 38.08651 | 22548 ft | 463 kts | 163° |
| 2026-05-05 13:25 | 54.60077 | 38.10297 | 22992 ft | 466 kts | 163° |
| 2026-05-05 13:25 | 54.56983 | 38.11945 | 23461 ft | 469 kts | 163° |
| 2026-05-05 13:25 | 54.53857 | 38.13608 | 23882 ft | 472 kts | 163° |
| 2026-05-05 13:25 | 54.50714 | 38.15279 | 24329 ft | 475 kts | 163° |
| 2026-05-05 13:26 | 54.47535 | 38.16973 | 24729 ft | 478 kts | 163° |
| 2026-05-05 13:26 | 54.44331 | 38.18678 | 25138 ft | 481 kts | 163° |
| 2026-05-05 13:26 | 54.41161 | 38.20361 | 25535 ft | 484 kts | 163° |
| 2026-05-05 13:26 | 54.37915 | 38.22082 | 25919 ft | 486 kts | 163° |
| 2026-05-05 13:27 | 54.34692 | 38.23780 | 26280 ft | 489 kts | 164° |
| 2026-05-05 13:27 | 54.31405 | 38.25265 | 26635 ft | 492 kts | 167° |
| 2026-05-05 13:27 | 54.28057 | 38.26698 | 26997 ft | 494 kts | 166° |
| 2026-05-05 13:27 | 54.24697 | 38.28146 | 27336 ft | 497 kts | 166° |
| 2026-05-05 13:28 | 54.21333 | 38.29597 | 27657 ft | 500 kts | 166° |
| 2026-05-05 13:28 | 54.17988 | 38.31039 | 28021 ft | 501 kts | 166° |
| 2026-05-05 13:28 | 54.14575 | 38.32510 | 28317 ft | 504 kts | 166° |
| 2026-05-05 13:28 | 54.11172 | 38.33973 | 28633 ft | 506 kts | 166° |
| 2026-05-05 13:29 | 54.07780 | 38.35430 | 28919 ft | 509 kts | 166° |
| 2026-05-05 13:29 | 54.04310 | 38.36918 | 29248 ft | 511 kts | 166° |
| 2026-05-05 13:29 | 54.00855 | 38.38397 | 29563 ft | 512 kts | 166° |
| 2026-05-05 13:29 | 53.97427 | 38.39862 | 29956 ft | 512 kts | 166° |
| 2026-05-05 13:30 | 53.93956 | 38.41343 | 30338 ft | 511 kts | 166° |
| 2026-05-05 13:30 | 53.90508 | 38.42812 | 30705 ft | 511 kts | 166° |
| 2026-05-05 13:30 | 53.87042 | 38.44286 | 31115 ft | 509 kts | 166° |
| 2026-05-05 13:30 | 53.83628 | 38.45734 | 31409 ft | 510 kts | 166° |
| 2026-05-05 13:31 | 53.80198 | 38.47188 | 31743 ft | 509 kts | 166° |
| 2026-05-05 13:31 | 53.76746 | 38.48649 | 32120 ft | 507 kts | 166° |
| 2026-05-05 13:31 | 53.73300 | 38.50032 | 32416 ft | 507 kts | 169° |
| 2026-05-05 13:31 | 53.69863 | 38.51158 | 32714 ft | 506 kts | 169° |
| 2026-05-05 13:32 | 53.66423 | 38.52284 | 33046 ft | 505 kts | 169° |
| 2026-05-05 13:32 | 53.62968 | 38.53418 | 33323 ft | 505 kts | 169° |
| 2026-05-05 13:32 | 53.59532 | 38.54547 | 33577 ft | 505 kts | 169° |
| 2026-05-05 13:32 | 53.56074 | 38.55682 | 33879 ft | 503 kts | 169° |
| 2026-05-05 13:33 | 53.52608 | 38.56818 | 34152 ft | 503 kts | 169° |
| 2026-05-05 13:33 | 53.49178 | 38.57941 | 34446 ft | 502 kts | 169° |
| 2026-05-05 13:33 | 53.45772 | 38.59055 | 34644 ft | 502 kts | 169° |
| 2026-05-05 13:33 | 53.42331 | 38.60179 | 34940 ft | 500 kts | 169° |
| 2026-05-05 13:34 | 53.38926 | 38.61289 | 35167 ft | 500 kts | 169° |
| 2026-05-05 13:34 | 53.35520 | 38.62397 | 35394 ft | 499 kts | 169° |
| 2026-05-05 13:34 | 53.32133 | 38.63499 | 35578 ft | 498 kts | 169° |
| 2026-05-05 13:34 | 53.28714 | 38.64608 | 35736 ft | 498 kts | 169° |
| 2026-05-05 13:35 | 53.25333 | 38.65703 | 35900 ft | 498 kts | 170° |
| 2026-05-05 13:35 | 53.21925 | 38.66805 | 36058 ft | 497 kts | 170° |
| 2026-05-05 13:35 | 53.18518 | 38.67905 | 36196 ft | 496 kts | 170° |
| 2026-05-05 13:35 | 53.15133 | 38.68996 | 36287 ft | 497 kts | 170° |
| 2026-05-05 13:36 | 53.11748 | 38.70085 | 36389 ft | 497 kts | 170° |
| 2026-05-05 13:36 | 53.08342 | 38.71179 | 36469 ft | 497 kts | 170° |
| 2026-05-05 13:36 | 53.01540 | 38.73358 | 36608 ft | 497 kts | 170° |
| 2026-05-05 13:37 | 52.94767 | 38.75522 | 36747 ft | 498 kts | 170° |
| 2026-05-05 13:37 | 52.87950 | 38.77695 | 36854 ft | 497 kts | 170° |
| 2026-05-05 13:38 | 52.81164 | 38.79850 | 36851 ft | 497 kts | 170° |
| 2026-05-05 13:38 | 52.74405 | 38.81988 | 36855 ft | 497 kts | 170° |
| 2026-05-05 13:39 | 52.67626 | 38.84127 | 36854 ft | 497 kts | 170° |
| 2026-05-05 13:39 | 52.60832 | 38.86264 | 36859 ft | 497 kts | 170° |
| 2026-05-05 13:40 | 52.54063 | 38.88386 | 36863 ft | 497 kts | 170° |
| 2026-05-05 13:40 | 52.47261 | 38.90511 | 36862 ft | 498 kts | 170° |
| 2026-05-05 13:41 | 52.40521 | 38.93002 | 36870 ft | 498 kts | 160° |
| 2026-05-05 13:41 | 52.34439 | 38.98074 | 36903 ft | 496 kts | 146° |
| 2026-05-05 13:42 | 52.28653 | 39.04191 | 36906 ft | 497 kts | 146° |
| 2026-05-05 13:42 | 52.22842 | 39.10375 | 36913 ft | 497 kts | 145° |
| 2026-05-05 13:43 | 52.17076 | 39.16518 | 36922 ft | 498 kts | 145° |
| 2026-05-05 13:43 | 52.11238 | 39.22726 | 36934 ft | 499 kts | 145° |
| 2026-05-05 13:44 | 52.08328 | 39.25810 | 36931 ft | 487 kts | 145° |
| 2026-05-05 13:44 | 52.05545 | 39.28757 | 36938 ft | 483 kts | 145° |
| 2026-05-05 13:44 | 51.99857 | 39.34769 | 36846 ft | 487 kts | 145° |
| 2026-05-05 13:45 | 51.94192 | 39.40736 | 36845 ft | 489 kts | 145° |
| 2026-05-05 13:45 | 51.88469 | 39.46745 | 36840 ft | 491 kts | 145° |
| 2026-05-05 13:46 | 51.82746 | 39.52736 | 36838 ft | 493 kts | 145° |
| 2026-05-05 13:46 | 51.76993 | 39.58741 | 36837 ft | 494 kts | 145° |
| 2026-05-05 13:47 | 51.70867 | 39.63800 | 36849 ft | 496 kts | 159° |
| 2026-05-05 13:47 | 51.64362 | 39.67440 | 36836 ft | 498 kts | 161° |
| 2026-05-05 13:48 | 51.57791 | 39.71040 | 36837 ft | 499 kts | 161° |
| 2026-05-05 13:48 | 51.51261 | 39.74584 | 36840 ft | 500 kts | 161° |
| 2026-05-05 13:49 | 51.44629 | 39.78162 | 36837 ft | 501 kts | 161° |
| 2026-05-05 13:49 | 51.38042 | 39.81705 | 36839 ft | 502 kts | 161° |
| 2026-05-05 13:50 | 51.31432 | 39.85248 | 36842 ft | 503 kts | 161° |
| 2026-05-05 13:50 | 51.24788 | 39.88798 | 36842 ft | 504 kts | 161° |
| 2026-05-05 13:51 | 51.18149 | 39.92335 | 36841 ft | 505 kts | 161° |
| 2026-05-05 13:51 | 51.11474 | 39.95880 | 36843 ft | 505 kts | 161° |
| 2026-05-05 13:52 | 51.04807 | 39.99406 | 36843 ft | 506 kts | 161° |
| 2026-05-05 13:52 | 50.98137 | 40.02926 | 36843 ft | 505 kts | 162° |
| 2026-05-05 13:53 | 50.91475 | 40.06430 | 36845 ft | 502 kts | 162° |
| 2026-05-05 13:53 | 50.84839 | 40.09907 | 36836 ft | 500 kts | 162° |
| 2026-05-05 13:54 | 50.78248 | 40.13351 | 36837 ft | 500 kts | 162° |
| 2026-05-05 13:54 | 50.71635 | 40.16797 | 36837 ft | 500 kts | 162° |
| 2026-05-05 13:55 | 50.65031 | 40.20229 | 36838 ft | 500 kts | 162° |
| 2026-05-05 13:55 | 50.58398 | 40.23666 | 36839 ft | 500 kts | 162° |
| 2026-05-05 13:56 | 50.51799 | 40.27075 | 36838 ft | 501 kts | 162° |
| 2026-05-05 13:56 | 50.45182 | 40.30483 | 36841 ft | 501 kts | 162° |
| 2026-05-05 13:57 | 50.38581 | 40.33874 | 36840 ft | 501 kts | 162° |
| 2026-05-05 13:57 | 50.31946 | 40.37271 | 36842 ft | 500 kts | 162° |
| 2026-05-05 13:58 | 50.25287 | 40.40670 | 36843 ft | 501 kts | 162° |
| 2026-05-05 13:58 | 50.18693 | 40.44027 | 36843 ft | 501 kts | 162° |
| 2026-05-05 13:59 | 50.08735 | 40.49072 | 36845 ft | 501 kts | 162° |
| 2026-05-05 14:00 | 49.98794 | 40.54074 | 36843 ft | 501 kts | 162° |
| 2026-05-05 14:00 | 49.92187 | 40.57388 | 36842 ft | 501 kts | 162° |
| 2026-05-05 14:01 | 49.85581 | 40.60695 | 36860 ft | 500 kts | 162° |
| 2026-05-05 14:01 | 49.78928 | 40.64017 | 36895 ft | 500 kts | 162° |
| 2026-05-05 14:02 | 49.72321 | 40.67304 | 36918 ft | 500 kts | 163° |
| 2026-05-05 14:02 | 49.65641 | 40.70348 | 36922 ft | 499 kts | 171° |
| 2026-05-05 14:03 | 49.58771 | 40.71005 | 36923 ft | 496 kts | 182° |
| 2026-05-05 14:03 | 49.51868 | 40.70893 | 36918 ft | 496 kts | 183° |
| 2026-05-05 14:04 | 49.44973 | 40.70725 | 36920 ft | 496 kts | 183° |
| 2026-05-05 14:04 | 49.38101 | 40.70535 | 36920 ft | 496 kts | 183° |
| 2026-05-05 14:05 | 49.31154 | 40.70356 | 36920 ft | 496 kts | 183° |
| 2026-05-05 14:05 | 49.24256 | 40.70178 | 36921 ft | 496 kts | 183° |
| 2026-05-05 14:06 | 49.17343 | 40.69998 | 36921 ft | 496 kts | 183° |
| 2026-05-05 14:06 | 49.10489 | 40.69819 | 36923 ft | 496 kts | 183° |
| 2026-05-05 14:07 | 49.05924 | 40.69703 | 36921 ft | 493 kts | 184° |
| 2026-05-05 14:07 | 48.99114 | 40.69527 | 36920 ft | 485 kts | 184° |
| 2026-05-05 14:08 | 48.92438 | 40.69260 | 36919 ft | 478 kts | 189° |
| 2026-05-05 14:08 | 48.85877 | 40.67559 | 36920 ft | 476 kts | 194° |
| 2026-05-05 14:09 | 48.79388 | 40.65695 | 36916 ft | 476 kts | 194° |
| 2026-05-05 14:09 | 48.72927 | 40.63823 | 36917 ft | 476 kts | 194° |
| 2026-05-05 14:10 | 48.66400 | 40.61930 | 36918 ft | 476 kts | 194° |
| 2026-05-05 14:10 | 48.59970 | 40.60068 | 36914 ft | 476 kts | 194° |
| 2026-05-05 14:11 | 48.53462 | 40.58187 | 36918 ft | 477 kts | 194° |
| 2026-05-05 14:11 | 48.46999 | 40.56325 | 36919 ft | 477 kts | 194° |
| 2026-05-05 14:12 | 48.40493 | 40.54466 | 36915 ft | 476 kts | 194° |
| 2026-05-05 14:12 | 48.33998 | 40.52620 | 36920 ft | 476 kts | 194° |
| 2026-05-05 14:13 | 48.27469 | 40.50769 | 36919 ft | 477 kts | 194° |
| 2026-05-05 14:13 | 48.21004 | 40.48940 | 36918 ft | 476 kts | 194° |
| 2026-05-05 14:14 | 48.14471 | 40.47098 | 36915 ft | 477 kts | 194° |
| 2026-05-05 14:14 | 48.07970 | 40.45270 | 36917 ft | 477 kts | 194° |
| 2026-05-05 14:15 | 48.01488 | 40.43453 | 36916 ft | 477 kts | 194° |
| 2026-05-05 14:15 | 47.94985 | 40.41633 | 36918 ft | 476 kts | 194° |
| 2026-05-05 14:16 | 47.88468 | 40.39814 | 36915 ft | 477 kts | 194° |
| 2026-05-05 14:16 | 47.81994 | 40.38114 | 36917 ft | 479 kts | 189° |
| 2026-05-05 14:17 | 47.75280 | 40.38260 | 36921 ft | 483 kts | 180° |
| 2026-05-05 14:17 | 47.68580 | 40.38925 | 36916 ft | 484 kts | 180° |
| 2026-05-05 14:18 | 47.61861 | 40.39624 | 36916 ft | 484 kts | 180° |
| 2026-05-05 14:18 | 47.55175 | 40.40329 | 36919 ft | 483 kts | 179° |
| 2026-05-05 14:19 | 47.48452 | 40.41042 | 36920 ft | 484 kts | 179° |
| 2026-05-05 14:19 | 47.41711 | 40.41755 | 36916 ft | 484 kts | 179° |
| 2026-05-05 14:20 | 47.35034 | 40.42462 | 36916 ft | 484 kts | 179° |
| 2026-05-05 14:20 | 47.28290 | 40.43172 | 36919 ft | 484 kts | 180° |
| 2026-05-05 14:21 | 47.21586 | 40.43878 | 36915 ft | 483 kts | 180° |
| 2026-05-05 14:21 | 47.14872 | 40.44582 | 36919 ft | 483 kts | 179° |
| 2026-05-05 14:22 | 47.08191 | 40.44952 | 36922 ft | 482 kts | 183° |
| 2026-05-05 14:22 | 47.01462 | 40.45080 | 36919 ft | 481 kts | 183° |
| 2026-05-05 14:23 | 46.94802 | 40.45224 | 36912 ft | 474 kts | 184° |
| 2026-05-05 14:23 | 46.88236 | 40.45364 | 36921 ft | 467 kts | 184° |
| 2026-05-05 14:24 | 46.81730 | 40.45504 | 36914 ft | 466 kts | 184° |
| 2026-05-05 14:24 | 46.75238 | 40.45640 | 36919 ft | 466 kts | 184° |
| 2026-05-05 14:25 | 46.68785 | 40.45780 | 36911 ft | 466 kts | 184° |
| 2026-05-05 14:25 | 46.62300 | 40.45919 | 36911 ft | 466 kts | 184° |
| 2026-05-05 14:26 | 46.55822 | 40.46058 | 36919 ft | 466 kts | 184° |
| 2026-05-05 14:26 | 46.49318 | 40.46195 | 36924 ft | 466 kts | 184° |
| 2026-05-05 14:27 | 46.42840 | 40.46334 | 36918 ft | 466 kts | 184° |
| 2026-05-05 14:27 | 46.36375 | 40.46358 | 36919 ft | 464 kts | 189° |
| 2026-05-05 14:28 | 46.30115 | 40.44552 | 36917 ft | 457 kts | 199° |
| 2026-05-05 14:28 | 46.23993 | 40.42288 | 36918 ft | 457 kts | 199° |
| 2026-05-05 14:29 | 46.17860 | 40.39987 | 36909 ft | 455 kts | 199° |
| 2026-05-05 14:29 | 46.11697 | 40.37665 | 36917 ft | 456 kts | 200° |
| 2026-05-05 14:30 | 46.05557 | 40.35351 | 36905 ft | 456 kts | 200° |
| 2026-05-05 14:30 | 45.99439 | 40.33048 | 36902 ft | 457 kts | 198° |
| 2026-05-05 14:31 | 45.93304 | 40.30744 | 36879 ft | 457 kts | 199° |
| 2026-05-05 14:31 | 45.87258 | 40.28478 | 36865 ft | 458 kts | 199° |
| 2026-05-05 14:32 | 45.81083 | 40.26168 | 36870 ft | 457 kts | 199° |
| 2026-05-05 14:32 | 45.75112 | 40.23423 | 36876 ft | 450 kts | 209° |
| 2026-05-05 14:33 | 45.69447 | 40.19542 | 36874 ft | 451 kts | 210° |
| 2026-05-05 14:33 | 45.63800 | 40.15646 | 36868 ft | 451 kts | 210° |
| 2026-05-05 14:34 | 45.58189 | 40.11768 | 36872 ft | 450 kts | 210° |
| 2026-05-05 14:34 | 45.53754 | 40.08702 | 36870 ft | 447 kts | 210° |
| 2026-05-05 14:35 | 45.48103 | 40.04798 | 36870 ft | 449 kts | 210° |
| 2026-05-05 14:35 | 45.42293 | 40.01603 | 36875 ft | 456 kts | 196° |
| 2026-05-05 14:36 | 45.36000 | 40.00337 | 36872 ft | 460 kts | 192° |
| 2026-05-05 14:36 | 45.29614 | 39.99226 | 36865 ft | 461 kts | 191° |
| 2026-05-05 14:37 | 45.23298 | 39.98160 | 36871 ft | 458 kts | 191° |
| 2026-05-05 14:37 | 45.16958 | 39.97098 | 36869 ft | 459 kts | 191° |
| 2026-05-05 14:38 | 45.10588 | 39.96038 | 36868 ft | 459 kts | 192° |
| 2026-05-05 14:38 | 45.04261 | 39.94997 | 36872 ft | 451 kts | 193° |
| 2026-05-05 14:39 | 44.98113 | 39.93984 | 36866 ft | 435 kts | 194° |
| 2026-05-05 14:39 | 44.92189 | 39.93004 | 36863 ft | 426 kts | 195° |
| 2026-05-05 14:40 | 44.86284 | 39.92027 | 36873 ft | 428 kts | 195° |
| 2026-05-05 14:40 | 44.80378 | 39.91057 | 36869 ft | 428 kts | 195° |
| 2026-05-05 14:41 | 44.74461 | 39.90088 | 36871 ft | 429 kts | 195° |
| 2026-05-05 14:41 | 44.71497 | 39.89605 | 36706 ft | 431 kts | 195° |
| 2026-05-05 14:41 | 44.68523 | 39.89127 | 36420 ft | 420 kts | 195° |
| 2026-05-05 14:42 | 44.65651 | 39.88662 | 35942 ft | 414 kts | 195° |
| 2026-05-05 14:42 | 44.62810 | 39.88197 | 35487 ft | 410 kts | 195° |
| 2026-05-05 14:42 | 44.59969 | 39.87733 | 35029 ft | 412 kts | 195° |
| 2026-05-05 14:42 | 44.57111 | 39.87265 | 34571 ft | 417 kts | 195° |
| 2026-05-05 14:43 | 44.54246 | 39.86797 | 34112 ft | 417 kts | 195° |
| 2026-05-05 14:43 | 44.51381 | 39.86332 | 33641 ft | 416 kts | 195° |
| 2026-05-05 14:43 | 44.48511 | 39.85864 | 33178 ft | 417 kts | 195° |
| 2026-05-05 14:43 | 44.45609 | 39.85392 | 32709 ft | 419 kts | 194° |
| 2026-05-05 14:44 | 44.42724 | 39.84929 | 32244 ft | 419 kts | 194° |
| 2026-05-05 14:44 | 44.39858 | 39.84489 | 31787 ft | 422 kts | 192° |
| 2026-05-05 14:44 | 44.36908 | 39.84510 | 31336 ft | 433 kts | 182° |
| 2026-05-05 14:44 | 44.33901 | 39.85255 | 30862 ft | 443 kts | 173° |
| 2026-05-05 14:45 | 44.30934 | 39.86410 | 30360 ft | 445 kts | 172° |
| 2026-05-05 14:45 | 44.27942 | 39.87588 | 29847 ft | 444 kts | 172° |
| 2026-05-05 14:45 | 44.25005 | 39.88747 | 29349 ft | 441 kts | 172° |
| 2026-05-05 14:45 | 44.22062 | 39.89913 | 28843 ft | 437 kts | 172° |
| 2026-05-05 14:46 | 44.19192 | 39.91045 | 28362 ft | 434 kts | 171° |
| 2026-05-05 14:46 | 44.16296 | 39.92191 | 27869 ft | 428 kts | 171° |
| 2026-05-05 14:46 | 44.13428 | 39.93324 | 27388 ft | 425 kts | 171° |
| 2026-05-05 14:46 | 44.10627 | 39.94430 | 26923 ft | 422 kts | 171° |
| 2026-05-05 14:47 | 44.07825 | 39.95535 | 26457 ft | 420 kts | 171° |
| 2026-05-05 14:47 | 44.05031 | 39.96636 | 25992 ft | 415 kts | 170° |
| 2026-05-05 14:47 | 44.02291 | 39.97716 | 25538 ft | 412 kts | 170° |
| 2026-05-05 14:47 | 43.99546 | 39.98795 | 25089 ft | 410 kts | 170° |
| 2026-05-05 14:48 | 43.96824 | 39.99866 | 24649 ft | 405 kts | 170° |
| 2026-05-05 14:48 | 43.94113 | 40.00934 | 24194 ft | 404 kts | 169° |
| 2026-05-05 14:48 | 43.91434 | 40.01990 | 23736 ft | 401 kts | 169° |
| 2026-05-05 14:48 | 43.88755 | 40.03046 | 23285 ft | 397 kts | 169° |
| 2026-05-05 14:49 | 43.86079 | 40.04098 | 22844 ft | 395 kts | 169° |
| 2026-05-05 14:49 | 43.83467 | 40.05124 | 22411 ft | 392 kts | 169° |
| 2026-05-05 14:49 | 43.80872 | 40.06144 | 21979 ft | 390 kts | 169° |
| 2026-05-05 14:49 | 43.78283 | 40.07160 | 21546 ft | 387 kts | 168° |
| 2026-05-05 14:50 | 43.75715 | 40.08167 | 21117 ft | 385 kts | 168° |
| 2026-05-05 14:50 | 43.73144 | 40.09138 | 20687 ft | 381 kts | 172° |
| 2026-05-05 14:50 | 43.70520 | 40.09596 | 20261 ft | 374 kts | 182° |
| 2026-05-05 14:50 | 43.67955 | 40.09336 | 19780 ft | 371 kts | 192° |
| 2026-05-05 14:51 | 43.65487 | 40.08388 | 19116 ft | 369 kts | 202° |
| 2026-05-05 14:51 | 43.63133 | 40.07067 | 18546 ft | 366 kts | 204° |
| 2026-05-05 14:51 | 43.60809 | 40.05701 | 17989 ft | 363 kts | 204° |
| 2026-05-05 14:51 | 43.58503 | 40.04308 | 17431 ft | 360 kts | 204° |
| 2026-05-05 14:52 | 43.56245 | 40.02923 | 16959 ft | 358 kts | 204° |
| 2026-05-05 14:52 | 43.53987 | 40.01526 | 16468 ft | 356 kts | 204° |
| 2026-05-05 14:52 | 43.51725 | 40.00120 | 16021 ft | 354 kts | 204° |
| 2026-05-05 14:52 | 43.49503 | 39.98737 | 15612 ft | 354 kts | 204° |
| 2026-05-05 14:53 | 43.47275 | 39.97348 | 15216 ft | 353 kts | 204° |
| 2026-05-05 14:53 | 43.45027 | 39.96029 | 14824 ft | 352 kts | 200° |
| 2026-05-05 14:53 | 43.42696 | 39.94957 | 14446 ft | 351 kts | 198° |
| 2026-05-05 14:53 | 43.40366 | 39.93894 | 14070 ft | 350 kts | 199° |
| 2026-05-05 14:54 | 43.38055 | 39.92839 | 13697 ft | 349 kts | 198° |
| 2026-05-05 14:54 | 43.35738 | 39.91782 | 13322 ft | 348 kts | 198° |
| 2026-05-05 14:54 | 43.33442 | 39.90738 | 12952 ft | 348 kts | 198° |
| 2026-05-05 14:54 | 43.31171 | 39.89704 | 12586 ft | 347 kts | 198° |
| 2026-05-05 14:55 | 43.28869 | 39.88658 | 12215 ft | 346 kts | 198° |
| 2026-05-05 14:55 | 43.26594 | 39.87625 | 11848 ft | 345 kts | 198° |
| 2026-05-05 14:55 | 43.24332 | 39.86599 | 11482 ft | 342 kts | 198° |
| 2026-05-05 14:55 | 43.22090 | 39.85583 | 11129 ft | 342 kts | 198° |
| 2026-05-05 14:56 | 43.19843 | 39.84565 | 10757 ft | 340 kts | 198° |
| 2026-05-05 14:56 | 43.17612 | 39.83555 | 10401 ft | 338 kts | 199° |
| 2026-05-05 14:56 | 43.15388 | 39.82549 | 10055 ft | 332 kts | 199° |
| 2026-05-05 14:56 | 43.13254 | 39.81585 | 9830 ft | 322 kts | 199° |
| 2026-05-05 14:57 | 43.11165 | 39.80642 | 9744 ft | 308 kts | 199° |
| 2026-05-05 14:57 | 43.09179 | 39.79684 | 9724 ft | 292 kts | 206° |
| 2026-05-05 14:57 | 43.07598 | 39.78132 | 9726 ft | 277 kts | 230° |
| 2026-05-05 14:57 | 43.06704 | 39.75846 | 9627 ft | 271 kts | 253° |
| 2026-05-05 14:58 | 43.06308 | 39.73342 | 9472 ft | 270 kts | 260° |
| 2026-05-05 14:58 | 43.06202 | 39.70787 | 9340 ft | 269 kts | 271° |
| 2026-05-05 14:58 | 43.06414 | 39.68244 | 9236 ft | 270 kts | 278° |
| 2026-05-05 14:58 | 43.06796 | 39.65709 | 9144 ft | 270 kts | 282° |
| 2026-05-05 14:59 | 43.07253 | 39.63244 | 9066 ft | 270 kts | 284° |
| 2026-05-05 14:59 | 43.07767 | 39.60743 | 8994 ft | 270 kts | 285° |
| 2026-05-05 14:59 | 43.08297 | 39.58302 | 8802 ft | 274 kts | 285° |
| 2026-05-05 14:59 | 43.08857 | 39.55802 | 8486 ft | 272 kts | 286° |
| 2026-05-05 15:00 | 43.09412 | 39.53350 | 8203 ft | 269 kts | 286° |
| 2026-05-05 15:00 | 43.09782 | 39.51724 | 7991 ft | 269 kts | 286° |
| 2026-05-05 15:00 | 43.10730 | 39.48694 | 7653 ft | 266 kts | 308° |
| 2026-05-05 15:00 | 43.12141 | 39.47125 | 7374 ft | 273 kts | 334° |
| 2026-05-05 15:01 | 43.13995 | 39.46550 | 6936 ft | 279 kts | 359° |
| 2026-05-05 15:01 | 43.15945 | 39.46702 | 6486 ft | 283 kts | 6° |
| 2026-05-05 15:01 | 43.17753 | 39.47494 | 6047 ft | 287 kts | 31° |
| 2026-05-05 15:01 | 43.19123 | 39.49220 | 5734 ft | 285 kts | 57° |
| 2026-05-05 15:02 | 43.19905 | 39.51537 | 5483 ft | 281 kts | 72° |
| 2026-05-05 15:02 | 43.20470 | 39.53929 | 5225 ft | 278 kts | 72° |
| 2026-05-05 15:02 | 43.21054 | 39.56379 | 4980 ft | 274 kts | 73° |
| 2026-05-05 15:02 | 43.21632 | 39.58837 | 4764 ft | 269 kts | 73° |
| 2026-05-05 15:03 | 43.22198 | 39.61257 | 4580 ft | 264 kts | 73° |
| 2026-05-05 15:03 | 43.22757 | 39.63662 | 4240 ft | 265 kts | 73° |
| 2026-05-05 15:03 | 43.23312 | 39.66050 | 4101 ft | 263 kts | 73° |
| 2026-05-05 15:03 | 43.23878 | 39.68492 | 3766 ft | 265 kts | 73° |
| 2026-05-05 15:04 | 43.24430 | 39.70879 | 3465 ft | 264 kts | 73° |
| 2026-05-05 15:04 | 43.24987 | 39.73290 | 3174 ft | 263 kts | 73° |
| 2026-05-05 15:04 | 43.25540 | 39.75683 | 2988 ft | 256 kts | 73° |
| 2026-05-05 15:04 | 43.26065 | 39.77959 | 2985 ft | 244 kts | 73° |
| 2026-05-05 15:05 | 43.27334 | 39.81967 | 3019 ft | 223 kts | 43° |
| 2026-05-05 15:05 | 43.28555 | 39.83315 | 3002 ft | 221 kts | 33° |
| 2026-05-05 15:05 | 43.29818 | 39.84304 | 3005 ft | 199 kts | 26° |
| 2026-05-05 15:06 | 43.31054 | 39.85178 | 2762 ft | 196 kts | 26° |
| 2026-05-05 15:06 | 43.32200 | 39.86029 | 2489 ft | 178 kts | 27° |
| 2026-05-05 15:06 | 43.33265 | 39.86834 | 2245 ft | 175 kts | 27° |
| 2026-05-05 15:06 | 43.34300 | 39.87610 | 2027 ft | 165 kts | 27° |
| 2026-05-05 15:07 | 43.35247 | 39.88319 | 1809 ft | 158 kts | 27° |
| 2026-05-05 15:07 | 43.36177 | 39.89016 | 1590 ft | 148 kts | 27° |
| 2026-05-05 15:07 | 43.37080 | 39.89693 | 1404 ft | 147 kts | 27° |
| 2026-05-05 15:07 | 43.37979 | 39.90366 | 1218 ft | 147 kts | 27° |
| 2026-05-05 15:08 | 43.38875 | 39.91037 | 1033 ft | 146 kts | 27° |
| 2026-05-05 15:08 | 43.39771 | 39.91708 | 847 ft | 146 kts | 27° |
| 2026-05-05 15:08 | 43.40647 | 39.92366 | 665 ft | 145 kts | 27° |
| 2026-05-05 15:08 | 43.41536 | 39.93039 | 490 ft | 144 kts | 26° |
| 2026-05-05 15:09 | 43.42408 | 39.93695 | 308 ft | 144 kts | 27° |
| 2026-05-05 15:09 | 43.43287 | 39.94352 | 114 ft | 143 kts | 26° |
| 2026-05-05 15:09 | 43.44129 | 39.94980 | 58 ft | 120 kts | 25° |
| 2026-05-05 15:09 | 43.44668 | 39.95386 | 65 ft | 70 kts | 27° |
| 2026-05-05 15:10 | 43.44923 | 39.95573 | 71 ft | 24 kts | 14° |
| 2026-05-05 15:10 | 43.45062 | 39.95509 | 72 ft | 11 kts | 321° |
| 2026-05-05 15:10 | 43.45065 | 39.95506 | 72 ft | 0 kts | 316° |
| 2026-05-05 15:11 | 43.45068 | 39.95502 | 72 ft | 2 kts | 316° |
| 2026-05-05 15:11 | 43.45095 | 39.95436 | 71 ft | 16 kts | 290° |
| 2026-05-05 15:11 | 43.45069 | 39.95268 | 67 ft | 16 kts | 246° |
| 2026-05-05 15:12 | 43.45019 | 39.95123 | 64 ft | 16 kts | 245° |
| 2026-05-05 15:12 | 43.44956 | 39.95007 | 63 ft | 14 kts | 243° |
| 2026-05-05 15:12 | 43.44913 | 39.94881 | 61 ft | 14 kts | 245° |
| 2026-05-05 15:12 | 43.44875 | 39.94766 | 60 ft | 12 kts | 246° |
| 2026-05-05 15:13 | 43.44836 | 39.94654 | 58 ft | 12 kts | 244° |
| 2026-05-05 15:13 | 43.44804 | 39.94560 | 59 ft | 8 kts | 244° |
| 2026-05-05 15:13 | 43.44766 | 39.94454 | 59 ft | 16 kts | 244° |
| 2026-05-05 15:13 | 43.44777 | 39.94403 | 60 ft | 4 kts | 324° |
| 2026-05-05 15:14 | 43.44801 | 39.94385 | 60 ft | 3 kts | 334° |
| 2026-05-05 15:14 | 43.44821 | 39.94372 | 60 ft | 0 kts | 334° |